sensor_id;sensor_type;location;lat;lon;timestamp;pressure;altitude;pressure_sealevel;temperature;humidity
38688;BME280;24444;53.216;-6.664;2022-09-09T00:00:49;99625.39;;;8.87;100.00
38688;BME280;24444;53.216;-6.664;2022-09-09T00:03:24;99625.76;;;9.50;100.00
38688;BME280;24444;53.216;-6.664;2022-09-09T00:05:58;99622.43;;;9.29;100.00
38688;BME280;24444;53.216;-6.664;2022-09-09T00:08:33;99616.87;;;9.05;100.00
38688;BME280;24444;53.216;-6.664;2022-09-09T00:11:05;99618.22;;;8.93;100.00
38688;BME280;24444;53.216;-6.664;2022-09-09T00:13:36;99619.96;;;8.52;100.00
38688;BME280;24444;53.216;-6.664;2022-09-09T00:16:12;99626.91;;;8.49;100.00
38688;BME280;24444;53.216;-6.664;2022-09-09T00:18:49;99627.05;;;9.34;100.00
38688;BME280;24444;53.216;-6.664;2022-09-09T00:21:22;99624.27;;;8.72;100.00
38688;BME280;24444;53.216;-6.664;2022-09-09T00:23:52;99624.55;;;9.42;100.00
38688;BME280;24444;53.216;-6.664;2022-09-09T00:26:24;99620.02;;;8.63;100.00
38688;BME280;24444;53.216;-6.664;2022-09-09T00:29:01;99622.16;;;8.83;100.00
38688;BME280;24444;53.216;-6.664;2022-09-09T00:31:31;99622.03;;;9.30;100.00
38688;BME280;24444;53.216;-6.664;2022-09-09T00:34:05;99621.11;;;8.87;100.00
38688;BME280;24444;53.216;-6.664;2022-09-09T00:36:36;99619.72;;;8.62;100.00
38688;BME280;24444;53.216;-6.664;2022-09-09T00:39:04;99614.86;;;9.23;100.00
38688;BME280;24444;53.216;-6.664;2022-09-09T00:41:44;99619.37;;;8.86;100.00
38688;BME280;24444;53.216;-6.664;2022-09-09T00:44:27;99622.31;;;8.70;100.00
38688;BME280;24444;53.216;-6.664;2022-09-09T00:47:04;99624.32;;;8.90;100.00
38688;BME280;24444;53.216;-6.664;2022-09-09T00:49:44;99626.05;;;8.89;100.00
38688;BME280;24444;53.216;-6.664;2022-09-09T00:52:25;99632.85;;;8.60;100.00
38688;BME280;24444;53.216;-6.664;2022-09-09T00:55:05;99630.83;;;8.95;100.00
38688;BME280;24444;53.216;-6.664;2022-09-09T00:57:35;99632.83;;;8.75;100.00
38688;BME280;24444;53.216;-6.664;2022-09-09T01:00:18;99633.84;;;9.30;100.00
38688;BME280;24444;53.216;-6.664;2022-09-09T01:02:53;99636.07;;;9.03;100.00
38688;BME280;24444;53.216;-6.664;2022-09-09T01:05:29;99635.73;;;8.62;100.00
38688;BME280;24444;53.216;-6.664;2022-09-09T01:08:02;99639.13;;;8.92;100.00
38688;BME280;24444;53.216;-6.664;2022-09-09T01:10:39;99638.05;;;8.60;100.00
38688;BME280;24444;53.216;-6.664;2022-09-09T01:13:15;99640.62;;;8.45;100.00
38688;BME280;24444;53.216;-6.664;2022-09-09T01:15:47;99642.57;;;8.58;100.00
38688;BME280;24444;53.216;-6.664;2022-09-09T01:18:17;99639.44;;;8.74;100.00
38688;BME280;24444;53.216;-6.664;2022-09-09T01:20:54;99637.00;;;8.83;100.00
38688;BME280;24444;53.216;-6.664;2022-09-09T01:23:37;99637.28;;;8.81;100.00
38688;BME280;24444;53.216;-6.664;2022-09-09T01:26:15;99637.92;;;8.55;100.00
38688;BME280;24444;53.216;-6.664;2022-09-09T01:28:46;99635.61;;;8.56;100.00
38688;BME280;24444;53.216;-6.664;2022-09-09T01:31:17;99635.04;;;8.62;100.00
38688;BME280;24444;53.216;-6.664;2022-09-09T01:33:45;99636.00;;;8.88;100.00
38688;BME280;24444;53.216;-6.664;2022-09-09T01:36:17;99637.52;;;8.54;100.00
38688;BME280;24444;53.216;-6.664;2022-09-09T01:38:47;99640.13;;;8.75;100.00
38688;BME280;24444;53.216;-6.664;2022-09-09T01:41:15;99637.92;;;8.73;100.00
38688;BME280;24444;53.216;-6.664;2022-09-09T01:43:43;99639.09;;;8.44;100.00
38688;BME280;24444;53.216;-6.664;2022-09-09T01:46:11;99638.70;;;8.69;100.00
38688;BME280;24444;53.216;-6.664;2022-09-09T01:48:39;99638.95;;;8.61;100.00
38688;BME280;24444;53.216;-6.664;2022-09-09T01:51:08;99641.17;;;9.04;100.00
38688;BME280;24444;53.216;-6.664;2022-09-09T01:53:36;99640.75;;;8.91;100.00
38688;BME280;24444;53.216;-6.664;2022-09-09T01:56:12;99639.30;;;8.55;100.00
38688;BME280;24444;53.216;-6.664;2022-09-09T01:58:53;99635.19;;;9.12;100.00
38688;BME280;24444;53.216;-6.664;2022-09-09T02:01:28;99634.61;;;8.89;100.00
38688;BME280;24444;53.216;-6.664;2022-09-09T02:04:07;99632.84;;;9.02;100.00
38688;BME280;24444;53.216;-6.664;2022-09-09T02:06:38;99633.01;;;8.67;100.00
38688;BME280;24444;53.216;-6.664;2022-09-09T02:09:09;99632.92;;;8.45;100.00
38688;BME280;24444;53.216;-6.664;2022-09-09T02:11:38;99634.09;;;8.54;100.00
38688;BME280;24444;53.216;-6.664;2022-09-09T02:14:10;99631.53;;;9.30;100.00
38688;BME280;24444;53.216;-6.664;2022-09-09T02:16:42;99633.11;;;8.91;100.00
38688;BME280;24444;53.216;-6.664;2022-09-09T02:19:15;99634.06;;;8.29;100.00
38688;BME280;24444;53.216;-6.664;2022-09-09T02:21:45;99632.05;;;8.88;100.00
38688;BME280;24444;53.216;-6.664;2022-09-09T02:24:14;99634.64;;;8.89;100.00
38688;BME280;24444;53.216;-6.664;2022-09-09T02:26:44;99635.65;;;8.72;100.00
38688;BME280;24444;53.216;-6.664;2022-09-09T02:29:22;99637.54;;;8.92;100.00
38688;BME280;24444;53.216;-6.664;2022-09-09T02:31:53;99640.44;;;8.67;100.00
38688;BME280;24444;53.216;-6.664;2022-09-09T02:34:23;99641.43;;;8.53;100.00
38688;BME280;24444;53.216;-6.664;2022-09-09T02:36:53;99637.24;;;9.58;100.00
38688;BME280;24444;53.216;-6.664;2022-09-09T02:39:24;99636.06;;;8.81;100.00
38688;BME280;24444;53.216;-6.664;2022-09-09T02:41:52;99635.46;;;8.87;100.00
38688;BME280;24444;53.216;-6.664;2022-09-09T02:44:19;99634.83;;;8.70;100.00
38688;BME280;24444;53.216;-6.664;2022-09-09T02:47:01;99635.63;;;9.02;100.00
38688;BME280;24444;53.216;-6.664;2022-09-09T02:49:39;99635.35;;;9.22;100.00
38688;BME280;24444;53.216;-6.664;2022-09-09T02:52:14;99627.98;;;9.16;100.00
38688;BME280;24444;53.216;-6.664;2022-09-09T02:54:42;99625.48;;;9.02;100.00
38688;BME280;24444;53.216;-6.664;2022-09-09T02:57:12;99622.65;;;8.88;100.00
38688;BME280;24444;53.216;-6.664;2022-09-09T02:59:40;99620.34;;;8.85;100.00
38688;BME280;24444;53.216;-6.664;2022-09-09T03:02:07;99617.32;;;9.03;100.00
38688;BME280;24444;53.216;-6.664;2022-09-09T03:04:34;99619.48;;;9.06;100.00
38688;BME280;24444;53.216;-6.664;2022-09-09T03:07:02;99619.23;;;9.30;100.00
38688;BME280;24444;53.216;-6.664;2022-09-09T03:09:30;99615.35;;;9.07;100.00
38688;BME280;24444;53.216;-6.664;2022-09-09T03:11:57;99609.65;;;9.16;100.00
38688;BME280;24444;53.216;-6.664;2022-09-09T03:14:25;99614.06;;;8.87;100.00
38688;BME280;24444;53.216;-6.664;2022-09-09T03:16:53;99611.42;;;8.61;100.00
38688;BME280;24444;53.216;-6.664;2022-09-09T03:19:21;99608.23;;;8.92;100.00
38688;BME280;24444;53.216;-6.664;2022-09-09T03:21:48;99607.15;;;9.01;100.00
38688;BME280;24444;53.216;-6.664;2022-09-09T03:24:16;99607.80;;;8.71;100.00
38688;BME280;24444;53.216;-6.664;2022-09-09T03:26:43;99606.39;;;8.72;100.00
38688;BME280;24444;53.216;-6.664;2022-09-09T03:29:11;99604.22;;;8.46;100.00
38688;BME280;24444;53.216;-6.664;2022-09-09T03:31:39;99604.69;;;9.03;100.00
38688;BME280;24444;53.216;-6.664;2022-09-09T03:34:07;99607.24;;;8.92;100.00
38688;BME280;24444;53.216;-6.664;2022-09-09T03:36:34;99606.64;;;9.10;100.00
38688;BME280;24444;53.216;-6.664;2022-09-09T03:39:02;99606.99;;;8.83;100.00
38688;BME280;24444;53.216;-6.664;2022-09-09T03:41:30;99607.74;;;9.41;100.00
38688;BME280;24444;53.216;-6.664;2022-09-09T03:43:57;99614.71;;;8.92;100.00
38688;BME280;24444;53.216;-6.664;2022-09-09T03:46:25;99617.54;;;8.92;100.00
38688;BME280;24444;53.216;-6.664;2022-09-09T03:48:53;99622.73;;;8.50;100.00
38688;BME280;24444;53.216;-6.664;2022-09-09T03:51:20;99624.42;;;8.80;100.00
38688;BME280;24444;53.216;-6.664;2022-09-09T03:53:47;99623.77;;;8.82;100.00
38688;BME280;24444;53.216;-6.664;2022-09-09T03:56:15;99624.15;;;8.58;100.00
38688;BME280;24444;53.216;-6.664;2022-09-09T03:58:43;99624.18;;;8.69;100.00
38688;BME280;24444;53.216;-6.664;2022-09-09T04:01:12;99625.18;;;8.97;100.00
38688;BME280;24444;53.216;-6.664;2022-09-09T04:03:40;99626.45;;;8.49;100.00
38688;BME280;24444;53.216;-6.664;2022-09-09T04:06:09;99624.96;;;9.12;100.00
38688;BME280;24444;53.216;-6.664;2022-09-09T04:08:37;99624.63;;;8.66;100.00
38688;BME280;24444;53.216;-6.664;2022-09-09T04:11:05;99629.53;;;8.75;100.00
38688;BME280;24444;53.216;-6.664;2022-09-09T04:13:33;99627.26;;;9.28;100.00
38688;BME280;24444;53.216;-6.664;2022-09-09T04:16:02;99623.02;;;9.34;100.00
38688;BME280;24444;53.216;-6.664;2022-09-09T04:18:30;99622.30;;;8.62;100.00
38688;BME280;24444;53.216;-6.664;2022-09-09T04:20:58;99617.39;;;8.78;100.00
38688;BME280;24444;53.216;-6.664;2022-09-09T04:23:27;99615.84;;;8.86;100.00
38688;BME280;24444;53.216;-6.664;2022-09-09T04:25:55;99620.08;;;8.85;100.00
38688;BME280;24444;53.216;-6.664;2022-09-09T04:28:25;99621.56;;;9.09;100.00
38688;BME280;24444;53.216;-6.664;2022-09-09T04:30:53;99623.67;;;8.53;100.00
38688;BME280;24444;53.216;-6.664;2022-09-09T04:33:20;99623.27;;;8.45;100.00
38688;BME280;24444;53.216;-6.664;2022-09-09T04:35:49;99621.43;;;9.18;100.00
38688;BME280;24444;53.216;-6.664;2022-09-09T04:38:17;99619.85;;;8.58;100.00
38688;BME280;24444;53.216;-6.664;2022-09-09T04:40:46;99621.13;;;9.23;100.00
38688;BME280;24444;53.216;-6.664;2022-09-09T04:43:15;99619.57;;;8.27;100.00
38688;BME280;24444;53.216;-6.664;2022-09-09T04:45:42;99625.16;;;8.71;100.00
38688;BME280;24444;53.216;-6.664;2022-09-09T04:48:10;99624.00;;;8.61;100.00
38688;BME280;24444;53.216;-6.664;2022-09-09T04:50:37;99622.06;;;8.48;100.00
38688;BME280;24444;53.216;-6.664;2022-09-09T04:53:05;99618.30;;;9.24;100.00
38688;BME280;24444;53.216;-6.664;2022-09-09T04:55:33;99618.32;;;8.69;100.00
38688;BME280;24444;53.216;-6.664;2022-09-09T04:58:03;99616.25;;;8.79;100.00
38688;BME280;24444;53.216;-6.664;2022-09-09T05:00:31;99612.62;;;9.09;100.00
38688;BME280;24444;53.216;-6.664;2022-09-09T05:02:58;99609.95;;;9.17;100.00
38688;BME280;24444;53.216;-6.664;2022-09-09T05:05:29;99610.74;;;9.06;100.00
38688;BME280;24444;53.216;-6.664;2022-09-09T05:08:01;99611.15;;;9.21;100.00
38688;BME280;24444;53.216;-6.664;2022-09-09T05:10:29;99612.10;;;9.22;100.00
38688;BME280;24444;53.216;-6.664;2022-09-09T05:12:56;99609.27;;;8.84;100.00
38688;BME280;24444;53.216;-6.664;2022-09-09T05:15:24;99612.31;;;8.71;100.00
38688;BME280;24444;53.216;-6.664;2022-09-09T05:17:51;99613.14;;;8.60;100.00
38688;BME280;24444;53.216;-6.664;2022-09-09T05:20:19;99615.17;;;8.86;100.00
38688;BME280;24444;53.216;-6.664;2022-09-09T05:22:46;99614.40;;;8.45;100.00
38688;BME280;24444;53.216;-6.664;2022-09-09T05:25:14;99609.49;;;8.36;100.00
38688;BME280;24444;53.216;-6.664;2022-09-09T05:27:42;99610.18;;;8.48;100.00
38688;BME280;24444;53.216;-6.664;2022-09-09T05:30:10;99610.52;;;8.71;100.00
38688;BME280;24444;53.216;-6.664;2022-09-09T05:32:38;99612.30;;;9.01;100.00
38688;BME280;24444;53.216;-6.664;2022-09-09T05:35:06;99616.41;;;8.83;100.00
38688;BME280;24444;53.216;-6.664;2022-09-09T05:37:33;99620.75;;;8.89;100.00
38688;BME280;24444;53.216;-6.664;2022-09-09T05:40:01;99623.98;;;8.99;100.00
38688;BME280;24444;53.216;-6.664;2022-09-09T05:42:30;99626.00;;;8.86;100.00
38688;BME280;24444;53.216;-6.664;2022-09-09T05:44:57;99624.93;;;9.22;100.00
38688;BME280;24444;53.216;-6.664;2022-09-09T05:47:25;99627.49;;;9.00;100.00
38688;BME280;24444;53.216;-6.664;2022-09-09T05:49:53;99627.10;;;9.19;100.00
38688;BME280;24444;53.216;-6.664;2022-09-09T05:52:20;99626.47;;;9.26;100.00
38688;BME280;24444;53.216;-6.664;2022-09-09T05:54:48;99629.32;;;9.28;100.00
38688;BME280;24444;53.216;-6.664;2022-09-09T05:57:15;99633.44;;;9.23;100.00
38688;BME280;24444;53.216;-6.664;2022-09-09T05:59:43;99635.95;;;9.37;100.00
38688;BME280;24444;53.216;-6.664;2022-09-09T06:02:11;99637.45;;;9.22;100.00
38688;BME280;24444;53.216;-6.664;2022-09-09T06:04:38;99639.09;;;8.89;100.00
38688;BME280;24444;53.216;-6.664;2022-09-09T06:07:06;99638.18;;;8.99;100.00
38688;BME280;24444;53.216;-6.664;2022-09-09T06:09:33;99640.01;;;9.06;100.00
38688;BME280;24444;53.216;-6.664;2022-09-09T06:12:01;99637.44;;;9.15;100.00
38688;BME280;24444;53.216;-6.664;2022-09-09T06:14:28;99640.85;;;8.95;100.00
38688;BME280;24444;53.216;-6.664;2022-09-09T06:16:56;99641.36;;;9.08;100.00
38688;BME280;24444;53.216;-6.664;2022-09-09T06:19:24;99643.44;;;8.68;100.00
38688;BME280;24444;53.216;-6.664;2022-09-09T06:21:51;99645.88;;;9.43;100.00
38688;BME280;24444;53.216;-6.664;2022-09-09T06:24:19;99648.12;;;9.14;100.00
38688;BME280;24444;53.216;-6.664;2022-09-09T06:26:46;99649.52;;;9.29;100.00
38688;BME280;24444;53.216;-6.664;2022-09-09T06:29:14;99650.77;;;9.13;100.00
38688;BME280;24444;53.216;-6.664;2022-09-09T06:31:41;99656.31;;;9.02;100.00
38688;BME280;24444;53.216;-6.664;2022-09-09T06:34:09;99657.26;;;9.05;100.00
38688;BME280;24444;53.216;-6.664;2022-09-09T06:36:38;99656.02;;;9.01;100.00
38688;BME280;24444;53.216;-6.664;2022-09-09T06:39:05;99660.42;;;9.06;100.00
38688;BME280;24444;53.216;-6.664;2022-09-09T06:41:33;99663.11;;;8.82;100.00
38688;BME280;24444;53.216;-6.664;2022-09-09T06:44:01;99658.67;;;9.05;100.00
38688;BME280;24444;53.216;-6.664;2022-09-09T06:46:30;99659.91;;;9.77;100.00
38688;BME280;24444;53.216;-6.664;2022-09-09T06:48:58;99666.98;;;9.14;100.00
38688;BME280;24444;53.216;-6.664;2022-09-09T06:51:27;99667.17;;;9.03;100.00
38688;BME280;24444;53.216;-6.664;2022-09-09T06:53:56;99669.85;;;8.81;100.00
38688;BME280;24444;53.216;-6.664;2022-09-09T06:56:26;99670.22;;;8.87;100.00
38688;BME280;24444;53.216;-6.664;2022-09-09T06:58:55;99676.66;;;8.90;100.00
38688;BME280;24444;53.216;-6.664;2022-09-09T07:01:23;99678.16;;;9.09;100.00
38688;BME280;24444;53.216;-6.664;2022-09-09T07:03:53;99682.38;;;8.90;100.00
38688;BME280;24444;53.216;-6.664;2022-09-09T07:06:22;99685.47;;;9.03;100.00
38688;BME280;24444;53.216;-6.664;2022-09-09T07:08:50;99682.62;;;8.83;100.00
38688;BME280;24444;53.216;-6.664;2022-09-09T07:11:19;99687.81;;;9.36;100.00
38688;BME280;24444;53.216;-6.664;2022-09-09T07:13:47;99690.19;;;8.88;100.00
38688;BME280;24444;53.216;-6.664;2022-09-09T07:16:16;99691.96;;;8.80;100.00
38688;BME280;24444;53.216;-6.664;2022-09-09T07:18:44;99692.03;;;8.98;100.00
38688;BME280;24444;53.216;-6.664;2022-09-09T07:21:12;99694.09;;;8.79;100.00
38688;BME280;24444;53.216;-6.664;2022-09-09T07:23:41;99695.50;;;8.90;100.00
38688;BME280;24444;53.216;-6.664;2022-09-09T07:26:10;99698.85;;;8.64;100.00
38688;BME280;24444;53.216;-6.664;2022-09-09T07:28:37;99702.78;;;8.89;100.00
38688;BME280;24444;53.216;-6.664;2022-09-09T07:31:06;99706.90;;;9.15;100.00
38688;BME280;24444;53.216;-6.664;2022-09-09T07:33:34;99708.32;;;8.90;100.00
38688;BME280;24444;53.216;-6.664;2022-09-09T07:36:04;99711.50;;;8.90;100.00
38688;BME280;24444;53.216;-6.664;2022-09-09T07:38:37;99716.85;;;9.05;100.00
38688;BME280;24444;53.216;-6.664;2022-09-09T07:41:06;99724.40;;;8.59;100.00
38688;BME280;24444;53.216;-6.664;2022-09-09T07:43:33;99726.02;;;8.99;100.00
38688;BME280;24444;53.216;-6.664;2022-09-09T07:46:01;99731.14;;;9.02;100.00
38688;BME280;24444;53.216;-6.664;2022-09-09T07:48:29;99734.32;;;8.77;100.00
38688;BME280;24444;53.216;-6.664;2022-09-09T07:51:06;99736.32;;;9.20;100.00
38688;BME280;24444;53.216;-6.664;2022-09-09T07:53:35;99740.35;;;9.09;100.00
38688;BME280;24444;53.216;-6.664;2022-09-09T07:56:04;99749.68;;;9.12;100.00
38688;BME280;24444;53.216;-6.664;2022-09-09T07:58:31;99757.91;;;8.93;100.00
38688;BME280;24444;53.216;-6.664;2022-09-09T08:00:59;99760.08;;;9.12;100.00
38688;BME280;24444;53.216;-6.664;2022-09-09T08:03:26;99770.94;;;9.35;100.00
38688;BME280;24444;53.216;-6.664;2022-09-09T08:06:01;99768.08;;;9.39;100.00
38688;BME280;24444;53.216;-6.664;2022-09-09T08:08:29;99770.36;;;9.85;100.00
38688;BME280;24444;53.216;-6.664;2022-09-09T08:11:02;99778.51;;;8.94;100.00
38688;BME280;24444;53.216;-6.664;2022-09-09T08:13:30;99782.93;;;9.27;100.00
38688;BME280;24444;53.216;-6.664;2022-09-09T08:16:05;99784.27;;;9.07;100.00
38688;BME280;24444;53.216;-6.664;2022-09-09T08:18:32;99785.87;;;9.50;100.00
38688;BME280;24444;53.216;-6.664;2022-09-09T08:21:06;99787.86;;;9.71;100.00
38688;BME280;24444;53.216;-6.664;2022-09-09T08:23:34;99787.09;;;9.16;100.00
38688;BME280;24444;53.216;-6.664;2022-09-09T08:26:06;99791.13;;;9.87;100.00
38688;BME280;24444;53.216;-6.664;2022-09-09T08:28:33;99797.34;;;10.05;100.00
38688;BME280;24444;53.216;-6.664;2022-09-09T08:31:11;99803.22;;;9.86;100.00
38688;BME280;24444;53.216;-6.664;2022-09-09T08:33:39;99810.35;;;9.60;100.00
38688;BME280;24444;53.216;-6.664;2022-09-09T08:36:08;99808.46;;;9.85;100.00
38688;BME280;24444;53.216;-6.664;2022-09-09T08:38:37;99810.56;;;9.91;100.00
38688;BME280;24444;53.216;-6.664;2022-09-09T08:41:44;99814.56;;;9.83;100.00
38688;BME280;24444;53.216;-6.664;2022-09-09T08:44:22;99828.12;;;10.04;100.00
38688;BME280;24444;53.216;-6.664;2022-09-09T08:47:00;99826.13;;;9.74;100.00
38688;BME280;24444;53.216;-6.664;2022-09-09T08:49:45;99829.18;;;9.90;100.00
38688;BME280;24444;53.216;-6.664;2022-09-09T08:52:19;99834.28;;;10.01;100.00
38688;BME280;24444;53.216;-6.664;2022-09-09T08:54:50;99839.22;;;10.14;100.00
38688;BME280;24444;53.216;-6.664;2022-09-09T08:57:21;99840.16;;;10.20;100.00
38688;BME280;24444;53.216;-6.664;2022-09-09T08:59:50;99844.83;;;10.29;100.00
38688;BME280;24444;53.216;-6.664;2022-09-09T09:02:23;99845.56;;;10.26;100.00
38688;BME280;24444;53.216;-6.664;2022-09-09T09:05:02;99850.47;;;10.54;100.00
38688;BME280;24444;53.216;-6.664;2022-09-09T09:07:44;99852.56;;;10.55;100.00
38688;BME280;24444;53.216;-6.664;2022-09-09T09:10:23;99853.48;;;10.89;100.00
38688;BME280;24444;53.216;-6.664;2022-09-09T09:12:54;99859.51;;;10.48;100.00
38688;BME280;24444;53.216;-6.664;2022-09-09T09:15:23;99858.73;;;10.83;100.00
38688;BME280;24444;53.216;-6.664;2022-09-09T09:17:52;99864.17;;;10.63;100.00
38688;BME280;24444;53.216;-6.664;2022-09-09T09:20:27;99868.82;;;11.06;100.00
38688;BME280;24444;53.216;-6.664;2022-09-09T09:23:01;99879.98;;;10.51;100.00
38688;BME280;24444;53.216;-6.664;2022-09-09T09:25:34;99883.00;;;10.73;100.00
38688;BME280;24444;53.216;-6.664;2022-09-09T09:28:12;99887.53;;;10.60;100.00
38688;BME280;24444;53.216;-6.664;2022-09-09T09:30:44;99887.67;;;10.67;100.00
38688;BME280;24444;53.216;-6.664;2022-09-09T09:33:19;99889.16;;;10.37;100.00
38688;BME280;24444;53.216;-6.664;2022-09-09T09:35:49;99895.23;;;10.71;100.00
38688;BME280;24444;53.216;-6.664;2022-09-09T09:38:18;99894.15;;;10.88;100.00
38688;BME280;24444;53.216;-6.664;2022-09-09T09:40:51;99894.84;;;11.22;100.00
38688;BME280;24444;53.216;-6.664;2022-09-09T09:43:22;99900.16;;;10.90;100.00
38688;BME280;24444;53.216;-6.664;2022-09-09T09:45:51;99900.50;;;11.21;100.00
38688;BME280;24444;53.216;-6.664;2022-09-09T09:48:19;99906.68;;;11.67;100.00
38688;BME280;24444;53.216;-6.664;2022-09-09T09:50:49;99908.47;;;11.34;100.00
38688;BME280;24444;53.216;-6.664;2022-09-09T09:53:22;99911.95;;;11.49;100.00
38688;BME280;24444;53.216;-6.664;2022-09-09T09:55:55;99915.62;;;12.32;100.00
38688;BME280;24444;53.216;-6.664;2022-09-09T09:58:24;99917.21;;;12.56;100.00
38688;BME280;24444;53.216;-6.664;2022-09-09T10:00:53;99916.47;;;12.23;100.00
38688;BME280;24444;53.216;-6.664;2022-09-09T10:03:25;99917.47;;;12.21;100.00
38688;BME280;24444;53.216;-6.664;2022-09-09T10:05:54;99921.55;;;12.36;100.00
38688;BME280;24444;53.216;-6.664;2022-09-09T10:08:21;99921.10;;;12.86;100.00
38688;BME280;24444;53.216;-6.664;2022-09-09T10:11:31;99922.47;;;13.24;100.00
38688;BME280;24444;53.216;-6.664;2022-09-09T10:14:13;99924.36;;;14.52;100.00
38688;BME280;24444;53.216;-6.664;2022-09-09T10:16:55;99928.60;;;13.63;100.00
38688;BME280;24444;53.216;-6.664;2022-09-09T10:19:30;99932.02;;;13.47;100.00
38688;BME280;24444;53.216;-6.664;2022-09-09T10:22:08;99936.03;;;13.58;100.00
38688;BME280;24444;53.216;-6.664;2022-09-09T10:24:52;99934.43;;;13.14;100.00
38688;BME280;24444;53.216;-6.664;2022-09-09T10:27:27;99940.28;;;12.63;100.00
38688;BME280;24444;53.216;-6.664;2022-09-09T10:30:07;99939.87;;;12.15;100.00
38688;BME280;24444;53.216;-6.664;2022-09-09T10:32:41;99944.15;;;12.24;100.00
38688;BME280;24444;53.216;-6.664;2022-09-09T10:35:13;99945.55;;;12.00;100.00
38688;BME280;24444;53.216;-6.664;2022-09-09T10:37:54;99950.99;;;12.23;100.00
38688;BME280;24444;53.216;-6.664;2022-09-09T10:40:32;99956.34;;;11.96;100.00
38688;BME280;24444;53.216;-6.664;2022-09-09T10:43:10;99957.85;;;11.37;100.00
38688;BME280;24444;53.216;-6.664;2022-09-09T10:45:49;99963.15;;;12.14;100.00
38688;BME280;24444;53.216;-6.664;2022-09-09T10:48:28;99967.83;;;12.01;100.00
38688;BME280;24444;53.216;-6.664;2022-09-09T10:51:05;99970.81;;;11.66;100.00
38688;BME280;24444;53.216;-6.664;2022-09-09T10:53:46;99972.37;;;11.82;100.00
38688;BME280;24444;53.216;-6.664;2022-09-09T10:56:19;99978.64;;;11.58;100.00
38688;BME280;24444;53.216;-6.664;2022-09-09T10:58:50;99984.20;;;11.62;100.00
38688;BME280;24444;53.216;-6.664;2022-09-09T11:01:21;99989.74;;;11.18;100.00
38688;BME280;24444;53.216;-6.664;2022-09-09T11:03:53;99993.45;;;11.90;100.00
38688;BME280;24444;53.216;-6.664;2022-09-09T11:06:28;99999.49;;;11.48;100.00
38688;BME280;24444;53.216;-6.664;2022-09-09T11:08:58;100002.77;;;11.11;100.00
38688;BME280;24444;53.216;-6.664;2022-09-09T11:11:29;100012.43;;;10.61;100.00
38688;BME280;24444;53.216;-6.664;2022-09-09T11:14:03;100015.64;;;10.65;100.00
38688;BME280;24444;53.216;-6.664;2022-09-09T11:16:38;100015.07;;;11.00;100.00
38688;BME280;24444;53.216;-6.664;2022-09-09T11:19:13;100015.17;;;10.82;100.00
38688;BME280;24444;53.216;-6.664;2022-09-09T11:21:46;100015.21;;;10.44;100.00
38688;BME280;24444;53.216;-6.664;2022-09-09T11:24:19;100010.38;;;10.99;100.00
38688;BME280;24444;53.216;-6.664;2022-09-09T11:26:51;100006.29;;;11.14;100.00
38688;BME280;24444;53.216;-6.664;2022-09-09T11:29:38;100008.12;;;11.51;100.00
38688;BME280;24444;53.216;-6.664;2022-09-09T11:32:20;100008.45;;;11.75;100.00
38688;BME280;24444;53.216;-6.664;2022-09-09T11:34:59;100008.96;;;12.53;100.00
38688;BME280;24444;53.216;-6.664;2022-09-09T11:37:46;100014.93;;;13.30;100.00
38688;BME280;24444;53.216;-6.664;2022-09-09T11:40:21;100012.46;;;13.01;100.00
38688;BME280;24444;53.216;-6.664;2022-09-09T11:42:49;100012.04;;;12.56;100.00
38688;BME280;24444;53.216;-6.664;2022-09-09T11:45:28;100009.70;;;12.27;100.00
38688;BME280;24444;53.216;-6.664;2022-09-09T11:47:57;100013.59;;;12.11;100.00
38688;BME280;24444;53.216;-6.664;2022-09-09T11:50:31;100019.42;;;12.02;100.00
38688;BME280;24444;53.216;-6.664;2022-09-09T11:53:19;100021.36;;;12.82;100.00
38688;BME280;24444;53.216;-6.664;2022-09-09T11:55:46;100023.30;;;13.06;100.00
38688;BME280;24444;53.216;-6.664;2022-09-09T11:58:17;100021.57;;;13.55;100.00
38688;BME280;24444;53.216;-6.664;2022-09-09T12:00:46;100021.10;;;13.62;100.00
38688;BME280;24444;53.216;-6.664;2022-09-09T12:03:34;100015.70;;;13.11;100.00
38688;BME280;24444;53.216;-6.664;2022-09-09T12:06:16;100019.97;;;13.43;100.00
38688;BME280;24444;53.216;-6.664;2022-09-09T12:08:50;100020.32;;;13.21;100.00
38688;BME280;24444;53.216;-6.664;2022-09-09T12:11:27;100024.63;;;13.10;100.00
38688;BME280;24444;53.216;-6.664;2022-09-09T12:13:55;100024.76;;;13.79;100.00
38688;BME280;24444;53.216;-6.664;2022-09-09T12:16:38;100025.20;;;14.46;100.00
38688;BME280;24444;53.216;-6.664;2022-09-09T12:19:14;100027.95;;;14.72;100.00
38688;BME280;24444;53.216;-6.664;2022-09-09T12:21:47;100029.51;;;14.29;100.00
38688;BME280;24444;53.216;-6.664;2022-09-09T12:24:20;100030.30;;;13.30;100.00
38688;BME280;24444;53.216;-6.664;2022-09-09T12:26:57;100033.35;;;13.54;100.00
38688;BME280;24444;53.216;-6.664;2022-09-09T12:29:30;100037.48;;;13.83;100.00
38688;BME280;24444;53.216;-6.664;2022-09-09T12:32:04;100041.17;;;13.62;100.00
38688;BME280;24444;53.216;-6.664;2022-09-09T12:34:39;100042.73;;;13.55;100.00
38688;BME280;24444;53.216;-6.664;2022-09-09T12:37:14;100042.69;;;13.43;100.00
38688;BME280;24444;53.216;-6.664;2022-09-09T12:39:46;100043.35;;;13.64;100.00
38688;BME280;24444;53.216;-6.664;2022-09-09T12:42:17;100044.53;;;13.83;100.00
38688;BME280;24444;53.216;-6.664;2022-09-09T12:44:55;100044.59;;;13.92;100.00
38688;BME280;24444;53.216;-6.664;2022-09-09T12:47:31;100045.79;;;14.41;100.00
38688;BME280;24444;53.216;-6.664;2022-09-09T12:50:02;100050.29;;;13.82;100.00
38688;BME280;24444;53.216;-6.664;2022-09-09T12:52:32;100052.58;;;14.40;100.00
38688;BME280;24444;53.216;-6.664;2022-09-09T12:55:01;100050.48;;;14.38;100.00
38688;BME280;24444;53.216;-6.664;2022-09-09T12:57:34;100053.49;;;14.54;98.33
38688;BME280;24444;53.216;-6.664;2022-09-09T13:00:10;100053.37;;;14.97;99.85
38688;BME280;24444;53.216;-6.664;2022-09-09T13:02:47;100057.43;;;14.67;98.78
38688;BME280;24444;53.216;-6.664;2022-09-09T13:05:17;100060.29;;;14.54;100.00
38688;BME280;24444;53.216;-6.664;2022-09-09T13:07:45;100062.44;;;14.17;100.00